Time;durP1;ratioP1;P1;durP2;ratioP2;P2;SDS_P1;SDS_P2;PMS_P1;PMS_P2;Temp;Humidity;BMP_temperature;BMP_pressure;BME280_temperature;BME280_humidity;BME280_pressure;Samples;Min_cycle;Max_cycle;Signal;HPM_P1;HPM_P2
2023/01/29 00:04:58;;;;;;;14.20;5.40;;;;;;;-0.57;96.06;101568.91;214060;1294;139425;-84
2023/01/29 00:10:55;;;;;;;12.10;5.00;;;;;;;-0.62;95.88;101547.40;213184;1292;138791;-85
2023/01/29 00:16:56;;;;;;;12.60;5.40;;;;;;;-0.70;96.14;101538.95;213710;1290;140210;-85
2023/01/29 00:22:57;;;;;;;20.10;6.50;;;;;;;-0.77;96.18;101530.27;213492;1292;139278;-85
2023/01/29 00:28:52;;;;;;;;;;;;;;;;;;;;;
2023/01/29 00:34:36;;;;;;;;;;;;;;;-0.90;96.31;101517.83;213803;1288;139662;-84
2023/01/29 00:46:37;;;;;;;;;;;;;;;;;;;;;
2023/01/29 00:52:37;;;;;;;;;;;;;;;;;;;;;
2023/01/29 00:59:01;;;;;;;13.30;5.40;;;;;;;-1.19;96.93;101501.84;214106;1293;138787;-84
2023/01/29 01:04:43;;;;;;;16.40;5.90;;;;;;;-1.25;96.66;101508.94;214846;1292;139626;-84
2023/01/29 01:16:50;;;;;;;;;;;;;;;;;;;;;
2023/01/29 01:22:42;;;;;;;29.10;9.30;;;;;;;-1.43;96.95;101511.33;213067;1291;139326;-83
2023/01/29 01:28:41;;;;;;;;;;;;;;;;;;;;;
2023/01/29 01:34:41;;;;;;;;;;;;;;;;;;;;;
2023/01/29 01:40:45;;;;;;;15.60;6.50;;;;;;;-1.60;97.39;101495.10;213442;1288;139057;-84
2023/01/29 01:46:45;;;;;;;13.90;5.80;;;;;;;-1.64;97.31;101505.84;213742;1291;138754;-84
2023/01/29 01:52:49;;;;;;;13.00;6.00;;;;;;;-1.68;97.49;101502.23;213183;1288;139228;-84
2023/01/29 02:10:52;;;;;;;;;;;;;;;;;;;;;
2023/01/29 02:17:02;;;;;;;16.50;6.80;;;;;;;-1.83;98.38;101485.60;213453;1291;139191;-84
2023/01/29 02:23:02;;;;;;;17.80;8.00;;;;;;;-1.84;98.95;101493.38;213435;1290;139621;-84
2023/01/29 02:29:21;;;;;;;15.70;7.20;;;;;;;-1.83;99.33;101492.18;213363;1288;139509;-84
2023/01/29 02:41:31;;;;;;;16.20;6.90;;;;;;;-1.75;99.99;101478.54;213390;1290;139444;-83
2023/01/29 02:47:33;;;;;;;20.80;8.00;;;;;;;-1.71;99.55;101473.14;214032;1290;139288;-84
2023/01/29 02:59:42;;;;;;;14.10;6.10;;;;;;;-1.63;99.88;101482.96;213421;1288;139514;-84
2023/01/29 03:05:43;;;;;;;15.50;5.60;;;;;;;-1.60;99.97;101470.95;213996;1291;138740;-83
2023/01/29 03:11:44;;;;;;;15.50;6.50;;;;;;;-1.55;99.94;101467.08;213399;1290;139164;-82
2023/01/29 03:17:48;;;;;;;12.40;6.10;;;;;;;-1.50;99.97;101469.06;213951;1289;138853;-86
2023/01/29 03:35:41;;;;;;;13.90;5.10;;;;;;;-1.39;99.83;101432.82;213927;1290;139201;-83
2023/01/29 03:41:49;;;;;;;14.60;5.60;;;;;;;-1.34;99.78;101416.88;213185;1288;139149;-84
2023/01/29 03:48:05;;;;;;;;;;;;;;;;;;;;;
2023/01/29 03:54:05;;;;;;;13.50;5.60;;;;;;;-1.29;99.67;101408.10;213412;1287;138561;-84
2023/01/29 04:00:25;;;;;;;13.80;5.30;;;;;;;-1.26;99.55;101405.84;213209;1289;139155;-83
2023/01/29 04:06:26;;;;;;;14.40;5.20;;;;;;;-1.23;99.53;101405.23;213821;1288;139022;-84
2023/01/29 04:18:31;;;;;;;13.60;5.10;;;;;;;-1.18;99.61;101382.20;213652;1288;139024;-83
2023/01/29 04:24:32;;;;;;;14.80;6.20;;;;;;;-1.16;99.46;101377.43;213752;1287;139082;-84
2023/01/29 04:30:40;;;;;;;12.10;5.60;;;;;;;-1.12;99.56;101361.64;213201;1289;139053;-84
2023/01/29 04:36:56;;;;;;;13.80;5.00;;;;;;;-1.09;99.40;101364.23;213768;1288;139410;-84
2023/01/29 04:43:00;;;;;;;15.00;5.70;;;;;;;-1.08;99.64;101355.46;213322;1290;139224;-83
2023/01/29 04:49:01;;;;;;;14.70;7.00;;;;;;;-1.07;99.32;101342.39;213765;1292;139041;-85
2023/01/29 04:55:20;;;;;;;18.60;7.50;;;;;;;-1.08;99.33;101326.41;213913;1290;138642;-83
2023/01/29 05:01:05;;;;;;;14.00;6.20;;;;;;;-1.06;99.60;101328.72;213548;1288;139190;-83
2023/01/29 05:06:52;;;;;;;;;;;;;;;;;;;;;
2023/01/29 05:12:54;;;;;;;15.30;6.00;;;;;;;-1.03;99.82;101329.29;213259;1290;139483;-84
2023/01/29 05:18:45;;;;;;;16.30;7.10;;;;;;;-1.01;99.78;101314.05;214095;1286;139559;-83
2023/01/29 05:24:46;;;;;;;15.80;7.00;;;;;;;-1.00;99.94;101310.53;213990;1288;139220;-84
2023/01/29 05:30:47;;;;;;;14.70;7.30;;;;;;;-0.97;99.88;101316.89;213252;1287;139301;-83
2023/01/29 05:36:48;;;;;;;20.70;8.50;;;;;;;-0.96;99.99;101315.16;213946;1288;139100;-83
2023/01/29 05:48:44;;;;;;;16.00;7.10;;;;;;;-0.96;100.00;101314.40;213923;1290;138616;-83
2023/01/29 05:54:45;;;;;;;17.80;7.80;;;;;;;-0.94;100.00;101330.77;213573;1290;139362;-84
2023/01/29 06:00:39;;;;;;;16.60;7.70;;;;;;;-0.95;100.00;101326.21;213347;1288;138952;-82
2023/01/29 06:06:40;;;;;;;18.40;7.60;;;;;;;-0.95;100.00;101330.44;214061;1287;139213;-84
2023/01/29 06:12:41;;;;;;;17.10;8.10;;;;;;;-0.96;100.00;101344.71;213463;1290;139348;-83
2023/01/29 06:18:43;;;;;;;22.60;8.80;;;;;;;-0.97;100.00;101350.45;213897;1287;139760;-84
2023/01/29 06:30:45;;;;;;;20.30;9.10;;;;;;;-1.01;100.00;101340.41;213510;1288;139456;-83
2023/01/29 06:36:35;;;;;;;19.20;8.10;;;;;;;-1.02;100.00;101369.55;214267;1290;139377;-84
2023/01/29 06:42:37;;;;;;;17.40;7.40;;;;;;;-1.03;100.00;101371.27;213572;1290;139225;-83
2023/01/29 06:48:38;;;;;;;18.10;8.40;;;;;;;-1.01;100.00;101371.11;214242;1290;139327;-84
2023/01/29 06:54:37;;;;;;;;;;;;;;;;;;;;;
2023/01/29 07:00:39;;;;;;;22.60;10.20;;;;;;;-0.97;100.00;101355.41;213571;1291;139235;-83
2023/01/29 07:06:32;;;;;;;;;;;;;;;;;;;;;
2023/01/29 07:12:26;;;;;;;21.90;10.00;;;;;;;-0.95;100.00;101326.60;213169;1290;140603;-82
2023/01/29 07:24:41;;;;;;;24.30;12.30;;;;;;;-0.91;100.00;101326.26;213239;1289;139854;-84
2023/01/29 07:30:34;;;;;;;;;;;;;;;;;;;;;
2023/01/29 07:36:32;;;;;;;;;;;;;;;;;;;;;
2023/01/29 07:42:34;;;;;;;24.00;11.60;;;;;;;-0.89;100.00;101321.06;213245;1293;139380;-82
2023/01/29 07:48:34;;;;;;;;;;;;;;;;;;;;;
2023/01/29 08:00:35;;;;;;;;;;;;;;;;;;;;;
2023/01/29 08:06:37;;;;;;;26.40;12.40;;;;;;;-0.79;100.00;101333.15;215180;1290;139457;-83
2023/01/29 08:12:30;;;;;;;;;;;;;;;;;;;;;
2023/01/29 08:18:27;;;;;;;23.90;11.50;;;;;;;-0.70;100.00;101340.50;214148;1288;138835;-83
2023/01/29 08:24:29;;;;;;;23.10;11.40;;;;;;;-0.64;100.00;101338.79;214199;1286;139796;-84
2023/01/29 08:30:19;;;;;;;;;;;;;;;;;;;;;
2023/01/29 08:36:08;;;;;;;30.70;13.50;;;;;;;-0.51;100.00;101309.44;214344;1287;139542;-85
2023/01/29 08:41:56;;;;;;;29.40;13.50;;;;;;;-0.46;100.00;101288.09;213917;1290;139312;-84
2023/01/29 08:47:57;;;;;;;27.50;12.00;;;;;;;-0.42;100.00;101277.78;214314;1287;139384;-84
2023/01/29 08:59:51;;;;;;;;;;;;;;;;;;;;;
2023/01/29 09:05:50;;;;;;;;;;;;;;;;;;;;;
2023/01/29 09:11:52;;;;;;;29.50;13.00;;;;;;;-0.31;100.00;101271.13;213404;1288;139515;-85
2023/01/29 09:17:53;;;;;;;28.20;13.80;;;;;;;-0.28;100.00;101278.79;214193;1288;138910;-84
2023/01/29 09:23:55;;;;;;;27.10;13.10;;;;;;;-0.23;100.00;101282.41;213507;1287;139710;-84
2023/01/29 09:29:56;;;;;;;27.10;12.40;;;;;;;-0.22;100.00;101275.64;213524;1290;139578;-85
2023/01/29 09:35:57;;;;;;;23.70;12.30;;;;;;;-0.19;100.00;101278.21;214185;1287;139613;-85
2023/01/29 09:41:55;;;;;;;;;;;;;;;;;;;;;
2023/01/29 09:47:56;;;;;;;;;;;;;;;;;;;;;
2023/01/29 09:54:10;;;;;;;22.50;11.70;;;;;;;-0.10;100.00;101279.21;213311;1287;139784;-84
2023/01/29 10:00:12;;;;;;;27.60;13.60;;;;;;;-0.11;100.00;101283.00;213156;1287;139549;-85
2023/01/29 10:06:16;;;;;;;24.90;12.80;;;;;;;-0.06;100.00;101270.02;213740;1287;139356;-84
2023/01/29 10:12:23;;;;;;;31.00;14.80;;;;;;;-0.05;100.00;101259.34;209480;1292;5399147;-86
2023/01/29 10:18:33;;;;;;;28.90;14.80;;;;;;;-0.01;100.00;101251.03;214069;1287;139443;-85
2023/01/29 10:24:23;;;;;;;24.80;11.90;;;;;;;0.00;100.00;101243.81;213681;1289;247985;-85
2023/01/29 10:30:16;;;;;;;;;;;;;;;;;;;;;
2023/01/29 10:36:17;;;;;;;30.70;14.00;;;;;;;0.03;100.00;101218.13;213746;1293;139546;-84
2023/01/29 10:42:18;;;;;;;31.20;13.90;;;;;;;0.06;100.00;101211.98;213477;1293;139384;-83
2023/01/29 10:54:29;;;;;;;26.30;13.40;;;;;;;0.10;100.00;101196.35;213721;1290;222217;-83
2023/01/29 11:00:19;;;;;;;28.30;13.50;;;;;;;0.11;100.00;101187.77;214363;1290;139253;-83
2023/01/29 11:06:25;;;;;;;28.00;13.50;;;;;;;0.11;100.00;101177.08;214006;1290;138586;-84
2023/01/29 11:12:21;;;;;;;32.60;15.20;;;;;;;0.12;100.00;101180.48;213643;1290;139141;-84
2023/01/29 11:18:14;;;;;;;;;;;;;;;;;;;;;
2023/01/29 11:24:22;;;;;;;;;;;;;;;;;;;;;
2023/01/29 11:30:03;;;;;;;;;;;;;;;0.20;100.00;101169.10;213608;1288;138740;-84
2023/01/29 11:35:56;;;;;;;;;;;;;;;;;;;;;
2023/01/29 11:41:57;;;;;;;31.30;15.50;;;;;;;0.27;100.00;101156.13;213710;1288;139235;-84
2023/01/29 11:47:52;;;;;;;;;;;;;;;;;;;;;
2023/01/29 11:53:43;;;;;;;31.50;14.70;;;;;;;0.28;100.00;101113.35;213706;1290;139024;-82
2023/01/29 11:59:36;;;;;;;33.30;16.10;;;;;;;0.29;100.00;101115.76;214233;1288;139227;-83
2023/01/29 12:05:37;;;;;;;31.70;15.70;;;;;;;0.34;100.00;101100.05;214074;1293;139722;-84
2023/01/29 12:11:36;;;;;;;;;;;;;;;;;;;;;
2023/01/29 12:17:30;;;;;;;33.70;15.00;;;;;;;0.42;100.00;101097.92;214214;1290;139685;-84
2023/01/29 12:23:43;;;;;;;39.80;16.40;;;;;;;0.44;100.00;101093.66;213445;1288;138882;-84
2023/01/29 12:30:11;;;;;;;35.10;16.90;;;;;;;0.47;100.00;101077.69;213227;1290;139350;-85
2023/01/29 12:42:24;;;;;;;32.80;16.10;;;;;;;0.47;100.00;101065.83;213474;1287;139845;-83
2023/01/29 12:48:17;;;;;;;34.40;16.10;;;;;;;0.48;100.00;101069.13;214462;1288;139070;-84
2023/01/29 12:54:10;;;;;;;34.90;15.20;;;;;;;0.49;100.00;101062.84;213665;1288;139084;-84
2023/01/29 13:00:05;;;;;;;31.00;16.20;;;;;;;0.49;100.00;101064.93;213611;1288;138909;-86
2023/01/29 13:06:22;;;;;;;29.60;15.30;;;;;;;0.48;100.00;101060.67;214062;1288;139255;-85
2023/01/29 13:12:36;;;;;;;;;;;;;;;;;;;;;
2023/01/29 13:18:29;;;;;;;;;;;;;;;;;;;;;
2023/01/29 13:24:36;;;;;;;35.00;17.30;;;;;;;0.52;100.00;101013.60;213743;1290;138558;-84
2023/01/29 13:30:28;;;;;;;35.80;18.30;;;;;;;0.54;100.00;101027.00;213563;1287;138977;-87
2023/01/29 13:36:29;;;;;;;39.50;19.40;;;;;;;0.56;100.00;101027.89;214219;1287;138583;-85
2023/01/29 13:42:33;;;;;;;35.40;17.20;;;;;;;0.58;100.00;101027.27;213469;1288;140207;-85
2023/01/29 13:48:30;;;;;;;;;;;;;;;;;;;;;
2023/01/29 13:54:12;;;;;;;;;;;;;;;0.62;100.00;101016.99;213696;1292;138545;-85
2023/01/29 14:06:39;;;;;;;32.80;17.50;;;;;;;0.64;100.00;101012.67;214157;1288;139371;-85
2023/01/29 14:12:13;;;;;;;33.90;17.60;;;;;;;0.63;100.00;101005.52;213621;1289;140006;-84
2023/01/29 14:18:17;;;;;;;33.20;15.80;;;;;;;0.61;100.00;101006.12;214320;1290;139259;-85
2023/01/29 14:24:19;;;;;;;31.60;16.60;;;;;;;0.60;100.00;101005.98;213656;1286;139724;-85
2023/01/29 14:30:12;;;;;;;38.40;19.70;;;;;;;0.60;100.00;100999.33;213717;1285;139245;-85
2023/01/29 14:35:48;;;;;;;;;;;;;;;;;;;;;
2023/01/29 14:48:15;;;;;;;34.50;18.50;;;;;;;0.59;100.00;100991.11;213335;1288;138689;-86
2023/01/29 14:54:18;;;;;;;;;;;;;;;;;;;;;
2023/01/29 15:00:09;;;;;;;42.10;19.00;;;;;;;0.58;100.00;100977.48;213620;1292;139150;-84
2023/01/29 15:06:08;;;;;;;;;;;;;;;;;;;;;
2023/01/29 15:12:15;;;;;;;;;;;;;;;;;;;;;
2023/01/29 15:18:08;;;;;;;;;;;;;;;;;;;;;
2023/01/29 15:24:24;;;;;;;34.20;15.60;;;;;;;0.53;100.00;100952.76;213717;1292;138699;-86
2023/01/29 15:30:26;;;;;;;;;;;;;;;;;;;;;
2023/01/29 15:36:28;;;;;;;33.70;17.50;;;;;;;0.53;100.00;100943.11;214101;1290;139316;-86
2023/01/29 15:42:06;;;;;;;;;;;;;;;;;;;;;
2023/01/29 15:47:53;;;;;;;34.10;17.00;;;;;;;0.54;100.00;100930.21;214202;1293;139164;-87
2023/01/29 15:53:52;;;;;;;37.30;16.50;;;;;;;0.53;100.00;100929.20;213881;1291;138838;-85
2023/01/29 15:59:34;;;;;;;33.30;16.40;;;;;;;0.56;100.00;100927.47;213605;1288;139181;-85
2023/01/29 16:05:36;;;;;;;38.30;17.60;;;;;;;0.56;100.00;100922.00;214160;1289;139214;-85
2023/01/29 16:11:39;;;;;;;36.90;18.20;;;;;;;0.58;100.00;100910.26;213858;1290;139306;-84
2023/01/29 16:17:39;;;;;;;38.70;18.70;;;;;;;0.58;100.00;100899.16;214440;1288;139232;-86
2023/01/29 16:23:27;;;;;;;;;;;;;;;;;;;;;
2023/01/29 16:29:22;;;;;;;37.50;17.20;;;;;;;0.62;100.00;100891.71;213389;1292;139542;-86
2023/01/29 16:35:29;;;;;;;38.50;18.70;;;;;;;0.63;100.00;100887.09;214180;1293;139294;-86
2023/01/29 16:41:48;;;;;;;36.40;18.30;;;;;;;0.63;100.00;100881.30;213714;1289;138910;-85
2023/01/29 16:53:59;;;;;;;36.50;18.80;;;;;;;0.62;100.00;100866.41;213938;1289;139204;-87
2023/01/29 17:00:00;;;;;;;38.90;20.00;;;;;;;0.63;100.00;100873.11;213376;1292;139134;-86
2023/01/29 17:06:08;;;;;;;43.00;22.30;;;;;;;0.63;100.00;100874.86;214246;1292;139446;-86
2023/01/29 17:18:15;;;;;;;42.90;21.40;;;;;;;0.63;100.00;100870.14;214375;1291;138610;-85
2023/01/29 17:24:00;;;;;;;46.00;22.70;;;;;;;0.63;100.00;100861.96;213929;1294;139905;-86
2023/01/29 17:30:01;;;;;;;42.10;20.40;;;;;;;0.64;100.00;100856.90;213647;1291;139214;-86
2023/01/29 17:35:38;;;;;;;46.60;21.50;;;;;;;0.64;100.00;100856.62;214237;1292;138491;-85
2023/01/29 17:41:48;;;;;;;42.80;20.80;;;;;;;0.65;100.00;100851.30;213711;1289;139227;-86
2023/01/29 17:47:49;;;;;;;47.40;22.90;;;;;;;0.63;100.00;100847.44;214269;1287;138711;-85
2023/01/29 17:53:39;;;;;;;;;;;;;;;;;;;;;
2023/01/29 17:59:44;;;;;;;42.30;20.20;;;;;;;0.62;100.00;100830.27;214120;1287;138950;-86
2023/01/29 18:05:43;;;;;;;;;;;;;;;;;;;;;
2023/01/29 18:11:45;;;;;;;36.80;18.60;;;;;;;0.61;100.00;100815.65;213585;1292;139204;-86
2023/01/29 18:17:47;;;;;;;33.80;17.10;;;;;;;0.60;100.00;100810.40;213984;1289;138771;-85
2023/01/29 18:23:47;;;;;;;39.80;18.80;;;;;;;0.58;100.00;100805.73;213568;1287;139313;-85
2023/01/29 18:29:40;;;;;;;;;;;;;;;;;;;;;
2023/01/29 18:35:42;;;;;;;42.10;19.80;;;;;;;0.57;100.00;100785.11;214334;1291;138787;-86
2023/01/29 18:41:44;;;;;;;32.70;16.70;;;;;;;0.57;100.00;100770.92;213727;1291;139315;-85
2023/01/29 18:47:47;;;;;;;43.10;19.10;;;;;;;0.56;100.00;100756.96;214124;1291;138680;-88
2023/01/29 18:53:46;;;;;;;39.90;19.60;;;;;;;0.56;100.00;100761.20;213480;1292;139275;-86
2023/01/29 18:59:30;;;;;;;40.70;18.90;;;;;;;0.55;100.00;100748.09;213310;1288;139779;-85
2023/01/29 19:17:08;;;;;;;;;;;;;;;;;;;;;
2023/01/29 19:23:06;;;;;;;;;;;;;;;;;;;;;
2023/01/29 19:29:07;;;;;;;32.60;15.90;;;;;;;0.60;100.00;100723.53;213851;1286;139218;-88
2023/01/29 19:34:51;;;;;;;38.50;19.40;;;;;;;0.60;100.00;100720.50;214632;1289;138667;-86
2023/01/29 19:40:53;;;;;;;43.00;18.50;;;;;;;0.58;100.00;100713.92;214130;1288;138878;-84
2023/01/29 19:46:52;;;;;;;35.40;16.50;;;;;;;0.59;100.00;100712.23;214479;1288;139415;-84
2023/01/29 19:52:49;;;;;;;;;;;;;;;;;;;;;
2023/01/29 19:58:34;;;;;;;;;;;;;;;0.55;100.00;100701.90;214545;1287;138868;-86
2023/01/29 20:04:34;;;;;;;;;;;;;;;;;;;;;
2023/01/29 20:16:35;;;;;;;37.60;18.10;;;;;;;0.51;100.00;100663.98;214272;1287;139182;-88
2023/01/29 20:22:37;;;;;;;34.60;18.90;;;;;;;0.51;100.00;100664.46;213530;1288;139623;-85
2023/01/29 20:28:30;;;;;;;34.00;16.60;;;;;;;0.50;100.00;100652.47;214477;1287;139250;-85
2023/01/29 20:34:32;;;;;;;39.60;19.60;;;;;;;0.49;100.00;100643.82;214014;1287;139883;-86
2023/01/29 20:40:32;;;;;;;34.80;16.10;;;;;;;0.49;100.00;100629.05;213471;1290;139490;-88
2023/01/29 20:46:31;;;;;;;;;;;;;;;;;;;;;
2023/01/29 20:52:31;;;;;;;;;;;;;;;;;;;;;
2023/01/29 20:58:33;;;;;;;40.70;19.40;;;;;;;0.45;100.00;100606.18;214313;1290;138740;-85
2023/01/29 21:04:25;;;;;;;;;;;;;;;;;;;;;
2023/01/29 21:16:12;;;;;;;36.20;16.70;;;;;;;0.46;100.00;100573.78;214615;1288;139259;-84
2023/01/29 21:22:09;;;;;;;36.00;16.60;;;;;;;0.48;100.00;100561.94;213883;1287;139556;-87
2023/01/29 21:28:11;;;;;;;31.70;16.40;;;;;;;0.48;100.00;100551.13;214163;1287;138976;-85
2023/01/29 21:34:12;;;;;;;31.00;16.00;;;;;;;0.49;100.00;100540.77;214094;1287;140083;-85
2023/01/29 21:40:13;;;;;;;27.90;14.40;;;;;;;0.49;100.00;100526.80;213726;1288;139722;-87
2023/01/29 21:46:12;;;;;;;;;;;;;;;;;;;;;
2023/01/29 21:52:14;;;;;;;34.20;16.00;;;;;;;0.51;100.00;100515.33;214226;1289;139220;-86
2023/01/29 21:58:15;;;;;;;33.40;16.50;;;;;;;0.53;100.00;100516.58;214919;1289;139268;-87
2023/01/29 22:10:04;;;;;;;;;;;;;;;0.52;100.00;100495.55;212410;1288;5391928;-84
2023/01/29 22:16:05;;;;;;;31.10;15.60;;;;;;;0.51;100.00;100482.89;214425;1290;125097;-84
2023/01/29 22:22:08;;;;;;;31.90;16.30;;;;;;;0.51;100.00;100470.91;213854;1287;139289;-86
2023/01/29 22:28:07;;;;;;;;;;;;;;;;;;;;;
2023/01/29 22:34:09;;;;;;;32.50;16.90;;;;;;;0.50;100.00;100426.55;213812;1287;139256;-84
2023/01/29 22:40:10;;;;;;;34.20;17.10;;;;;;;0.47;100.00;100419.96;213467;1287;139207;-85
2023/01/29 22:45:58;;;;;;;36.40;19.00;;;;;;;0.46;100.00;100406.80;213937;1290;139207;-85
2023/01/29 22:52:08;;;;;;;36.20;19.00;;;;;;;0.42;100.00;100390.64;213355;1287;139270;-85
2023/01/29 22:57:35;;;;;;;35.50;17.40;;;;;;;0.41;100.00;100388.99;214264;1287;139500;-85
2023/01/29 23:03:28;;;;;;;;;;;;;;;;;;;;;
2023/01/29 23:09:29;;;;;;;;;;;;;;;;;;;;;
2023/01/29 23:15:31;;;;;;;33.20;16.10;;;;;;;0.38;100.00;100343.87;214047;1291;139443;-84
2023/01/29 23:21:30;;;;;;;;;;;;;;;;;;;;;
2023/01/29 23:27:53;;;;;;;31.80;16.00;;;;;;;0.36;100.00;100306.03;214040;1287;139365;-88
2023/01/29 23:33:36;;;;;;;33.80;14.80;;;;;;;0.35;100.00;100287.77;213443;1290;139277;-85
2023/01/29 23:39:37;;;;;;;32.80;16.10;;;;;;;0.33;100.00;100285.70;213497;1288;139484;-84
2023/01/29 23:45:38;;;;;;;31.10;15.10;;;;;;;0.31;100.00;100277.38;214060;1288;139317;-86
2023/01/29 23:51:36;;;;;;;34.10;16.90;;;;;;;0.28;100.00;100262.72;213564;1287;139584;-87
2023/01/29 23:57:37;;;;;;;27.90;14.60;;;;;;;0.28;100.00;100251.48;214012;1292;139285;-85
